sensor_id;sensor_type;location;lat;lon;timestamp;pressure;altitude;pressure_sealevel;temperature;humidity
54270;BME280;40181;51.560;13.000;2023-01-26T00:00:20;101515.53;;;0.67;95.99
54270;BME280;40181;51.560;13.000;2023-01-26T00:02:50;101502.16;;;0.73;95.57
54270;BME280;40181;51.560;13.000;2023-01-26T00:05:19;101500.81;;;0.66;95.39
54270;BME280;40181;51.560;13.000;2023-01-26T00:07:48;101501.97;;;0.58;95.28
54270;BME280;40181;51.560;13.000;2023-01-26T00:10:19;101501.03;;;0.44;96.14
54270;BME280;40181;51.560;13.000;2023-01-26T00:12:48;101488.16;;;0.57;95.53
54270;BME280;40181;51.560;13.000;2023-01-26T00:15:17;101483.78;;;0.56;95.65
54270;BME280;40181;51.560;13.000;2023-01-26T00:17:46;101490.97;;;0.60;95.91
54270;BME280;40181;51.560;13.000;2023-01-26T00:20:16;101489.47;;;0.38;96.33
54270;BME280;40181;51.560;13.000;2023-01-26T00:22:45;101475.28;;;0.45;96.24
54270;BME280;40181;51.560;13.000;2023-01-26T00:25:14;101478.78;;;0.46;95.87
54270;BME280;40181;51.560;13.000;2023-01-26T00:27:46;101478.19;;;0.50;95.59
54270;BME280;40181;51.560;13.000;2023-01-26T00:30:16;101469.84;;;0.54;95.35
54270;BME280;40181;51.560;13.000;2023-01-26T00:32:45;101467.13;;;0.64;94.82
54270;BME280;40181;51.560;13.000;2023-01-26T00:35:15;101478.78;;;0.71;94.57
54270;BME280;40181;51.560;13.000;2023-01-26T00:37:44;101469.72;;;0.64;94.74
54270;BME280;40181;51.560;13.000;2023-01-26T00:40:13;101470.53;;;0.77;94.78
54270;BME280;40181;51.560;13.000;2023-01-26T00:42:45;101471.84;;;0.83;94.10
54270;BME280;40181;51.560;13.000;2023-01-26T00:45:14;101469.63;;;0.76;93.79
54270;BME280;40181;51.560;13.000;2023-01-26T00:47:43;101483.25;;;0.74;94.43
54270;BME280;40181;51.560;13.000;2023-01-26T00:50:13;101472.31;;;0.78;94.25
54270;BME280;40181;51.560;13.000;2023-01-26T00:52:43;101486.06;;;0.77;94.16
54270;BME280;40181;51.560;13.000;2023-01-26T00:55:13;101484.06;;;0.73;94.27
54270;BME280;40181;51.560;13.000;2023-01-26T00:57:42;101469.06;;;0.55;95.38
54270;BME280;40181;51.560;13.000;2023-01-26T01:00:15;101472.06;;;0.61;95.59
54270;BME280;40181;51.560;13.000;2023-01-26T01:02:44;101458.94;;;0.58;94.62
54270;BME280;40181;51.560;13.000;2023-01-26T01:05:13;101464.66;;;0.54;95.09
54270;BME280;40181;51.560;13.000;2023-01-26T01:07:42;101458.03;;;0.32;95.70
54270;BME280;40181;51.560;13.000;2023-01-26T01:10:11;101442.34;;;0.43;96.03
54270;BME280;40181;51.560;13.000;2023-01-26T01:12:41;101447.38;;;0.27;96.65
54270;BME280;40181;51.560;13.000;2023-01-26T01:15:12;101449.75;;;0.24;96.79
54270;BME280;40181;51.560;13.000;2023-01-26T01:17:42;101441.41;;;0.29;97.21
54270;BME280;40181;51.560;13.000;2023-01-26T01:20:11;101440.56;;;0.41;96.51
54270;BME280;40181;51.560;13.000;2023-01-26T01:22:40;101432.44;;;0.49;96.20
54270;BME280;40181;51.560;13.000;2023-01-26T01:25:09;101436.63;;;0.47;96.18
54270;BME280;40181;51.560;13.000;2023-01-26T01:27:38;101439.78;;;0.43;95.69
54270;BME280;40181;51.560;13.000;2023-01-26T01:30:09;101430.41;;;0.45;96.15
54270;BME280;40181;51.560;13.000;2023-01-26T01:32:41;101438.13;;;0.57;95.64
54270;BME280;40181;51.560;13.000;2023-01-26T01:35:13;101429.22;;;0.39;96.12
54270;BME280;40181;51.560;13.000;2023-01-26T01:37:42;101431.28;;;0.57;95.83
54270;BME280;40181;51.560;13.000;2023-01-26T01:40:12;101426.47;;;0.50;95.70
54270;BME280;40181;51.560;13.000;2023-01-26T01:42:46;101424.94;;;0.40;96.04
54270;BME280;40181;51.560;13.000;2023-01-26T01:45:45;101424.78;;;0.25;96.47
54270;BME280;40181;51.560;13.000;2023-01-26T01:48:19;101417.56;;;0.33;96.50
54270;BME280;40181;51.560;13.000;2023-01-26T01:50:54;101413.97;;;0.31;96.06
54270;BME280;40181;51.560;13.000;2023-01-26T01:53:28;101413.09;;;0.30;96.65
54270;BME280;40181;51.560;13.000;2023-01-26T01:56:00;101410.47;;;0.55;95.88
54270;BME280;40181;51.560;13.000;2023-01-26T01:58:36;101405.69;;;0.48;95.96
54270;BME280;40181;51.560;13.000;2023-01-26T02:01:09;101401.41;;;0.49;96.00
54270;BME280;40181;51.560;13.000;2023-01-26T02:03:40;101397.41;;;0.40;96.20
54270;BME280;40181;51.560;13.000;2023-01-26T02:06:13;101397.53;;;0.42;96.33
54270;BME280;40181;51.560;13.000;2023-01-26T02:08:44;101390.81;;;0.32;96.63
54270;BME280;40181;51.560;13.000;2023-01-26T02:11:16;101393.34;;;0.44;96.45
54270;BME280;40181;51.560;13.000;2023-01-26T02:13:48;101395.63;;;0.39;96.58
54270;BME280;40181;51.560;13.000;2023-01-26T02:16:20;101377.78;;;0.56;96.28
54270;BME280;40181;51.560;13.000;2023-01-26T02:18:49;101375.50;;;0.61;95.51
54270;BME280;40181;51.560;13.000;2023-01-26T02:21:20;101380.75;;;0.62;95.21
54270;BME280;40181;51.560;13.000;2023-01-26T02:23:57;101382.88;;;0.68;94.86
54270;BME280;40181;51.560;13.000;2023-01-26T02:26:37;101386.63;;;0.60;95.30
54270;BME280;40181;51.560;13.000;2023-01-26T02:29:09;101382.25;;;0.59;95.31
54270;BME280;40181;51.560;13.000;2023-01-26T02:31:39;101371.75;;;0.69;94.99
54270;BME280;40181;51.560;13.000;2023-01-26T02:34:08;101371.25;;;0.75;94.69
54270;BME280;40181;51.560;13.000;2023-01-26T02:36:38;101372.31;;;0.65;95.14
54270;BME280;40181;51.560;13.000;2023-01-26T02:39:21;101372.91;;;0.61;95.25
54270;BME280;40181;51.560;13.000;2023-01-26T02:41:57;101368.44;;;0.72;94.74
54270;BME280;40181;51.560;13.000;2023-01-26T02:44:40;101366.44;;;0.67;94.74
54270;BME280;40181;51.560;13.000;2023-01-26T02:47:12;101371.94;;;0.72;94.90
54270;BME280;40181;51.560;13.000;2023-01-26T02:49:43;101366.03;;;0.61;94.64
54270;BME280;40181;51.560;13.000;2023-01-26T02:52:15;101366.81;;;0.60;94.69
54270;BME280;40181;51.560;13.000;2023-01-26T02:54:44;101355.19;;;0.67;94.94
54270;BME280;40181;51.560;13.000;2023-01-26T02:57:29;101360.34;;;0.53;95.32
54270;BME280;40181;51.560;13.000;2023-01-26T02:59:59;101359.31;;;0.63;95.23
54270;BME280;40181;51.560;13.000;2023-01-26T03:02:28;101351.84;;;0.68;94.79
54270;BME280;40181;51.560;13.000;2023-01-26T03:04:57;101350.69;;;0.51;95.85
54270;BME280;40181;51.560;13.000;2023-01-26T03:07:26;101348.31;;;0.54;95.66
54270;BME280;40181;51.560;13.000;2023-01-26T03:09:55;101348.53;;;0.57;95.84
54270;BME280;40181;51.560;13.000;2023-01-26T03:12:35;101351.38;;;0.48;95.51
54270;BME280;40181;51.560;13.000;2023-01-26T03:15:06;101351.97;;;0.44;95.61
54270;BME280;40181;51.560;13.000;2023-01-26T03:17:48;101352.78;;;0.43;95.41
54270;BME280;40181;51.560;13.000;2023-01-26T03:20:37;101338.63;;;0.38;96.41
54270;BME280;40181;51.560;13.000;2023-01-26T03:23:19;101342.00;;;0.23;96.66
54270;BME280;40181;51.560;13.000;2023-01-26T03:26:08;101343.19;;;0.29;97.12
54270;BME280;40181;51.560;13.000;2023-01-26T03:28:52;101345.09;;;0.45;96.49
54270;BME280;40181;51.560;13.000;2023-01-26T03:31:21;101341.22;;;0.38;96.08
54270;BME280;40181;51.560;13.000;2023-01-26T03:33:51;101335.06;;;0.49;96.02
54270;BME280;40181;51.560;13.000;2023-01-26T03:36:20;101330.44;;;0.57;95.90
54270;BME280;40181;51.560;13.000;2023-01-26T03:38:49;101331.13;;;0.54;95.95
54270;BME280;40181;51.560;13.000;2023-01-26T03:41:18;101323.94;;;0.37;96.60
54270;BME280;40181;51.560;13.000;2023-01-26T03:44:02;101323.66;;;0.59;96.19
54270;BME280;40181;51.560;13.000;2023-01-26T03:46:44;101326.13;;;0.44;96.46
54270;BME280;40181;51.560;13.000;2023-01-26T03:49:25;101320.16;;;0.45;96.61
54270;BME280;40181;51.560;13.000;2023-01-26T03:52:07;101326.63;;;0.38;96.73
54270;BME280;40181;51.560;13.000;2023-01-26T03:54:49;101333.75;;;0.29;97.43
54270;BME280;40181;51.560;13.000;2023-01-26T03:57:30;101330.44;;;0.18;98.24
54270;BME280;40181;51.560;13.000;2023-01-26T04:00:03;101321.22;;;0.35;97.49
54270;BME280;40181;51.560;13.000;2023-01-26T04:02:33;101324.97;;;0.52;97.17
54270;BME280;40181;51.560;13.000;2023-01-26T04:05:14;101323.03;;;0.36;97.11
54270;BME280;40181;51.560;13.000;2023-01-26T04:08:01;101314.88;;;0.44;96.83
54270;BME280;40181;51.560;13.000;2023-01-26T04:10:42;101316.47;;;0.41;97.42
54270;BME280;40181;51.560;13.000;2023-01-26T04:13:11;101315.50;;;0.39;97.28
54270;BME280;40181;51.560;13.000;2023-01-26T04:15:55;101311.19;;;0.26;97.84
54270;BME280;40181;51.560;13.000;2023-01-26T04:18:37;101312.84;;;0.26;98.36
54270;BME280;40181;51.560;13.000;2023-01-26T04:21:19;101306.44;;;0.07;98.98
54270;BME280;40181;51.560;13.000;2023-01-26T04:23:57;101314.63;;;0.27;98.55
54270;BME280;40181;51.560;13.000;2023-01-26T04:26:29;101318.34;;;0.31;98.34
54270;BME280;40181;51.560;13.000;2023-01-26T04:29:02;101314.34;;;0.22;98.40
54270;BME280;40181;51.560;13.000;2023-01-26T04:31:34;101308.66;;;0.15;99.90
54270;BME280;40181;51.560;13.000;2023-01-26T04:34:05;101311.56;;;0.19;100.00
54270;BME280;40181;51.560;13.000;2023-01-26T04:36:37;101309.19;;;-0.03;100.00
54270;BME280;40181;51.560;13.000;2023-01-26T04:39:06;101305.88;;;0.11;100.00
54270;BME280;40181;51.560;13.000;2023-01-26T04:41:36;101308.50;;;-0.01;100.00
54270;BME280;40181;51.560;13.000;2023-01-26T04:44:05;101309.25;;;0.10;100.00
54270;BME280;40181;51.560;13.000;2023-01-26T04:46:36;101305.94;;;-0.01;100.00
54270;BME280;40181;51.560;13.000;2023-01-26T04:49:05;101310.88;;;0.22;100.00
54270;BME280;40181;51.560;13.000;2023-01-26T04:51:34;101307.28;;;-0.06;100.00
54270;BME280;40181;51.560;13.000;2023-01-26T04:54:04;101311.94;;;-0.13;100.00
54270;BME280;40181;51.560;13.000;2023-01-26T04:56:34;101306.44;;;0.07;100.00
54270;BME280;40181;51.560;13.000;2023-01-26T04:59:05;101307.59;;;-0.01;100.00
54270;BME280;40181;51.560;13.000;2023-01-26T05:01:39;101308.16;;;0.07;100.00
54270;BME280;40181;51.560;13.000;2023-01-26T05:04:10;101312.16;;;0.15;100.00
54270;BME280;40181;51.560;13.000;2023-01-26T05:06:39;101311.22;;;0.01;100.00
54270;BME280;40181;51.560;13.000;2023-01-26T05:09:09;101312.69;;;-0.03;100.00
54270;BME280;40181;51.560;13.000;2023-01-26T05:11:38;101318.41;;;-0.32;100.00
54270;BME280;40181;51.560;13.000;2023-01-26T05:14:07;101307.09;;;-0.09;100.00
54270;BME280;40181;51.560;13.000;2023-01-26T05:16:39;101311.41;;;0.04;100.00
54270;BME280;40181;51.560;13.000;2023-01-26T05:19:11;101318.16;;;0.02;100.00
54270;BME280;40181;51.560;13.000;2023-01-26T05:21:40;101321.31;;;-0.02;100.00
54270;BME280;40181;51.560;13.000;2023-01-26T05:24:09;101312.06;;;-0.12;100.00
54270;BME280;40181;51.560;13.000;2023-01-26T05:26:39;101317.69;;;-0.18;100.00
54270;BME280;40181;51.560;13.000;2023-01-26T05:29:08;101322.53;;;0.03;100.00
54270;BME280;40181;51.560;13.000;2023-01-26T05:31:39;101318.97;;;0.01;100.00
54270;BME280;40181;51.560;13.000;2023-01-26T05:34:08;101323.72;;;0.08;100.00
54270;BME280;40181;51.560;13.000;2023-01-26T05:36:37;101329.19;;;-0.01;100.00
54270;BME280;40181;51.560;13.000;2023-01-26T05:39:07;101316.38;;;0.01;100.00
54270;BME280;40181;51.560;13.000;2023-01-26T05:41:36;101315.41;;;0.12;100.00
54270;BME280;40181;51.560;13.000;2023-01-26T05:44:05;101328.88;;;-0.05;100.00
54270;BME280;40181;51.560;13.000;2023-01-26T05:46:34;101315.31;;;-0.15;100.00
54270;BME280;40181;51.560;13.000;2023-01-26T05:49:06;101312.09;;;0.02;100.00
54270;BME280;40181;51.560;13.000;2023-01-26T05:51:35;101310.81;;;0.08;100.00
54270;BME280;40181;51.560;13.000;2023-01-26T05:54:04;101318.13;;;0.14;100.00
54270;BME280;40181;51.560;13.000;2023-01-26T05:56:33;101312.31;;;0.05;100.00
54270;BME280;40181;51.560;13.000;2023-01-26T05:59:02;101315.53;;;0.14;100.00
54270;BME280;40181;51.560;13.000;2023-01-26T06:01:31;101313.41;;;-0.17;100.00
54270;BME280;40181;51.560;13.000;2023-01-26T06:04:01;101312.31;;;0.05;100.00
54270;BME280;40181;51.560;13.000;2023-01-26T06:06:32;101306.19;;;0.16;100.00
54270;BME280;40181;51.560;13.000;2023-01-26T06:09:01;101317.09;;;0.12;100.00
54270;BME280;40181;51.560;13.000;2023-01-26T06:11:31;101314.03;;;-0.08;100.00
54270;BME280;40181;51.560;13.000;2023-01-26T06:14:01;101307.84;;;0.02;100.00
54270;BME280;40181;51.560;13.000;2023-01-26T06:16:30;101306.44;;;0.07;100.00
54270;BME280;40181;51.560;13.000;2023-01-26T06:18:59;101309.47;;;-0.12;100.00
54270;BME280;40181;51.560;13.000;2023-01-26T06:21:28;101305.66;;;0.08;100.00
54270;BME280;40181;51.560;13.000;2023-01-26T06:24:00;101319.00;;;-0.11;100.00
54270;BME280;40181;51.560;13.000;2023-01-26T06:26:29;101319.66;;;-0.02;100.00
54270;BME280;40181;51.560;13.000;2023-01-26T06:28:58;101321.06;;;0.07;100.00
54270;BME280;40181;51.560;13.000;2023-01-26T06:31:27;101312.78;;;-0.01;100.00
54270;BME280;40181;51.560;13.000;2023-01-26T06:33:56;101317.38;;;0.03;100.00
54270;BME280;40181;51.560;13.000;2023-01-26T06:36:25;101323.22;;;-0.25;100.00
54270;BME280;40181;51.560;13.000;2023-01-26T06:38:57;101326.97;;;-0.08;100.00
54270;BME280;40181;51.560;13.000;2023-01-26T06:41:26;101322.59;;;-0.09;100.00
54270;BME280;40181;51.560;13.000;2023-01-26T06:43:57;101334.97;;;-0.17;100.00
54270;BME280;40181;51.560;13.000;2023-01-26T06:46:26;101327.22;;;-0.17;100.00
54270;BME280;40181;51.560;13.000;2023-01-26T06:48:55;101327.94;;;-0.06;100.00
54270;BME280;40181;51.560;13.000;2023-01-26T06:51:42;101334.72;;;-0.45;100.00
54270;BME280;40181;51.560;13.000;2023-01-26T06:54:16;101316.84;;;-0.42;100.00
54270;BME280;40181;51.560;13.000;2023-01-26T06:56:45;101316.44;;;-0.48;100.00
54270;BME280;40181;51.560;13.000;2023-01-26T06:59:14;101318.44;;;-0.44;100.00
54270;BME280;40181;51.560;13.000;2023-01-26T07:01:45;101324.25;;;-0.35;100.00
54270;BME280;40181;51.560;13.000;2023-01-26T07:04:15;101326.28;;;-0.05;100.00
54270;BME280;40181;51.560;13.000;2023-01-26T07:06:44;101326.94;;;-0.33;100.00
54270;BME280;40181;51.560;13.000;2023-01-26T07:09:16;101332.91;;;-0.34;100.00
54270;BME280;40181;51.560;13.000;2023-01-26T07:11:45;101318.66;;;-0.41;100.00
54270;BME280;40181;51.560;13.000;2023-01-26T07:14:14;101319.16;;;-0.21;100.00
54270;BME280;40181;51.560;13.000;2023-01-26T07:16:43;101333.69;;;-0.35;100.00
54270;BME280;40181;51.560;13.000;2023-01-26T07:19:12;101316.91;;;-0.54;100.00
54270;BME280;40181;51.560;13.000;2023-01-26T07:21:41;101311.53;;;-0.32;100.00
54270;BME280;40181;51.560;13.000;2023-01-26T07:24:10;101309.66;;;-0.34;100.00
54270;BME280;40181;51.560;13.000;2023-01-26T07:26:41;101312.50;;;-0.43;100.00
54270;BME280;40181;51.560;13.000;2023-01-26T07:29:10;101325.00;;;-0.24;100.00
54270;BME280;40181;51.560;13.000;2023-01-26T07:31:40;101313.47;;;-0.41;100.00
54270;BME280;40181;51.560;13.000;2023-01-26T07:34:11;101316.19;;;-0.39;100.00
54270;BME280;40181;51.560;13.000;2023-01-26T07:36:40;101306.22;;;-0.59;100.00
54270;BME280;40181;51.560;13.000;2023-01-26T07:39:10;101303.88;;;-0.44;100.00
54270;BME280;40181;51.560;13.000;2023-01-26T07:41:41;101296.28;;;-0.29;100.00
54270;BME280;40181;51.560;13.000;2023-01-26T07:44:10;101304.16;;;-0.27;100.00
54270;BME280;40181;51.560;13.000;2023-01-26T07:46:40;101314.84;;;-0.34;100.00
54270;BME280;40181;51.560;13.000;2023-01-26T07:49:09;101317.69;;;-0.18;100.00
54270;BME280;40181;51.560;13.000;2023-01-26T07:51:38;101319.56;;;-0.15;100.00
54270;BME280;40181;51.560;13.000;2023-01-26T07:54:09;101318.38;;;-0.20;99.83
54270;BME280;40181;51.560;13.000;2023-01-26T07:56:42;101322.22;;;-0.27;99.19
54270;BME280;40181;51.560;13.000;2023-01-26T07:59:11;101320.78;;;-0.35;99.78
54270;BME280;40181;51.560;13.000;2023-01-26T08:01:40;101326.00;;;-0.22;99.11
54270;BME280;40181;51.560;13.000;2023-01-26T08:04:09;101320.34;;;-0.42;99.60
54270;BME280;40181;51.560;13.000;2023-01-26T08:06:38;101321.88;;;-0.32;99.60
54270;BME280;40181;51.560;13.000;2023-01-26T08:09:07;101317.41;;;-0.34;99.58
54270;BME280;40181;51.560;13.000;2023-01-26T08:11:36;101311.81;;;-0.40;99.75
54270;BME280;40181;51.560;13.000;2023-01-26T08:14:08;101317.88;;;-0.40;100.00
54270;BME280;40181;51.560;13.000;2023-01-26T08:16:37;101318.88;;;-0.38;100.00
54270;BME280;40181;51.560;13.000;2023-01-26T08:19:06;101315.94;;;-0.31;100.00
54270;BME280;40181;51.560;13.000;2023-01-26T08:21:35;101314.84;;;-0.34;100.00
54270;BME280;40181;51.560;13.000;2023-01-26T08:24:05;101326.72;;;-0.36;100.00
54270;BME280;40181;51.560;13.000;2023-01-26T08:26:34;101320.50;;;-0.52;100.00
54270;BME280;40181;51.560;13.000;2023-01-26T08:29:03;101319.38;;;-0.56;100.00
54270;BME280;40181;51.560;13.000;2023-01-26T08:31:36;101314.50;;;-0.39;100.00
54270;BME280;40181;51.560;13.000;2023-01-26T08:34:05;101325.41;;;-0.55;100.00
54270;BME280;40181;51.560;13.000;2023-01-26T08:36:34;101315.31;;;-0.40;100.00
54270;BME280;40181;51.560;13.000;2023-01-26T08:39:03;101313.41;;;-0.43;100.00
54270;BME280;40181;51.560;13.000;2023-01-26T08:41:32;101318.72;;;-0.28;100.00
54270;BME280;40181;51.560;13.000;2023-01-26T08:44:01;101330.00;;;-0.39;100.00
54270;BME280;40181;51.560;13.000;2023-01-26T08:46:30;101321.97;;;-0.56;100.00
54270;BME280;40181;51.560;13.000;2023-01-26T08:49:02;101323.22;;;-0.25;100.00
54270;BME280;40181;51.560;13.000;2023-01-26T08:51:31;101330.69;;;-0.42;100.00
54270;BME280;40181;51.560;13.000;2023-01-26T08:54:00;101327.78;;;-0.58;100.00
54270;BME280;40181;51.560;13.000;2023-01-26T08:56:29;101326.81;;;-0.72;100.00
54270;BME280;40181;51.560;13.000;2023-01-26T08:58:58;101330.16;;;-0.49;99.46
54270;BME280;40181;51.560;13.000;2023-01-26T09:01:27;101345.34;;;-0.78;100.00
54270;BME280;40181;51.560;13.000;2023-01-26T09:03:56;101337.13;;;-0.60;100.00
54270;BME280;40181;51.560;13.000;2023-01-26T09:06:29;101353.25;;;-0.51;99.21
54270;BME280;40181;51.560;13.000;2023-01-26T09:08:58;101347.50;;;-0.47;98.39
54270;BME280;40181;51.560;13.000;2023-01-26T09:11:27;101340.00;;;-0.44;98.31
54270;BME280;40181;51.560;13.000;2023-01-26T09:13:56;101333.88;;;-0.58;98.15
54270;BME280;40181;51.560;13.000;2023-01-26T09:16:25;101345.53;;;-0.51;98.45
54270;BME280;40181;51.560;13.000;2023-01-26T09:18:54;101343.78;;;-0.38;98.65
54270;BME280;40181;51.560;13.000;2023-01-26T09:21:23;101350.41;;;-0.42;99.01
54270;BME280;40181;51.560;13.000;2023-01-26T09:23:57;101348.94;;;-0.38;98.91
54270;BME280;40181;51.560;13.000;2023-01-26T09:26:27;101351.13;;;-0.45;99.30
54270;BME280;40181;51.560;13.000;2023-01-26T09:28:57;101350.38;;;-0.67;99.20
54270;BME280;40181;51.560;13.000;2023-01-26T09:31:26;101347.09;;;-0.53;99.61
54270;BME280;40181;51.560;13.000;2023-01-26T09:33:55;101346.78;;;-0.58;98.21
54270;BME280;40181;51.560;13.000;2023-01-26T09:36:24;101333.31;;;-0.77;99.65
54270;BME280;40181;51.560;13.000;2023-01-26T09:38:54;101341.84;;;-0.66;99.74
54270;BME280;40181;51.560;13.000;2023-01-26T09:41:41;101341.69;;;-0.56;99.28
54270;BME280;40181;51.560;13.000;2023-01-26T09:44:17;101345.00;;;-0.82;99.33
54270;BME280;40181;51.560;13.000;2023-01-26T09:46:57;101342.97;;;-0.87;99.92
54270;BME280;40181;51.560;13.000;2023-01-26T09:49:42;101342.50;;;-0.69;99.35
54270;BME280;40181;51.560;13.000;2023-01-26T09:52:19;101343.88;;;-0.62;99.15
54270;BME280;40181;51.560;13.000;2023-01-26T09:54:57;101348.44;;;-0.58;99.03
54270;BME280;40181;51.560;13.000;2023-01-26T09:57:32;101337.25;;;-0.71;98.80
54270;BME280;40181;51.560;13.000;2023-01-26T10:00:07;101336.03;;;-0.88;99.47
54270;BME280;40181;51.560;13.000;2023-01-26T10:02:48;101340.06;;;-0.91;99.33
54270;BME280;40181;51.560;13.000;2023-01-26T10:05:32;101329.28;;;-0.86;100.00
54270;BME280;40181;51.560;13.000;2023-01-26T10:08:10;101327.47;;;-0.63;98.97
54270;BME280;40181;51.560;13.000;2023-01-26T10:10:44;101339.34;;;-0.53;98.92
54270;BME280;40181;51.560;13.000;2023-01-26T10:13:16;101329.41;;;-0.72;98.83
54270;BME280;40181;51.560;13.000;2023-01-26T10:15:46;101330.16;;;-0.49;98.53
54270;BME280;40181;51.560;13.000;2023-01-26T10:18:17;101341.84;;;-0.78;98.65
54270;BME280;40181;51.560;13.000;2023-01-26T10:20:51;101330.44;;;-0.94;100.00
54270;BME280;40181;51.560;13.000;2023-01-26T10:23:24;101336.22;;;-0.73;99.96
54270;BME280;40181;51.560;13.000;2023-01-26T10:26:10;101334.69;;;-0.71;99.77
54270;BME280;40181;51.560;13.000;2023-01-26T10:28:42;101323.09;;;-0.64;98.99
54270;BME280;40181;51.560;13.000;2023-01-26T10:31:15;101318.28;;;-0.71;98.05
54270;BME280;40181;51.560;13.000;2023-01-26T10:33:50;101329.06;;;-0.65;97.28
54270;BME280;40181;51.560;13.000;2023-01-26T10:36:21;101320.59;;;-0.50;96.72
54270;BME280;40181;51.560;13.000;2023-01-26T10:38:51;101326.47;;;-0.65;96.49
54270;BME280;40181;51.560;13.000;2023-01-26T10:41:32;101316.66;;;-0.45;96.04
54270;BME280;40181;51.560;13.000;2023-01-26T10:44:03;101317.16;;;-0.75;95.74
54270;BME280;40181;51.560;13.000;2023-01-26T10:47:01;101312.16;;;-0.48;95.23
54270;BME280;40181;51.560;13.000;2023-01-26T10:49:33;101312.16;;;-0.48;94.63
54270;BME280;40181;51.560;13.000;2023-01-26T10:52:07;101313.56;;;-0.65;94.58
54270;BME280;40181;51.560;13.000;2023-01-26T10:54:43;101307.44;;;-0.91;94.77
54270;BME280;40181;51.560;13.000;2023-01-26T10:57:23;101320.16;;;-0.57;95.85
54270;BME280;40181;51.560;13.000;2023-01-26T10:59:57;101315.03;;;-0.80;96.32
54270;BME280;40181;51.560;13.000;2023-01-26T11:02:33;101303.78;;;-0.69;95.43
54270;BME280;40181;51.560;13.000;2023-01-26T11:05:17;101302.25;;;-0.79;95.46
54270;BME280;40181;51.560;13.000;2023-01-26T11:07:49;101296.84;;;-0.70;95.70
54270;BME280;40181;51.560;13.000;2023-01-26T11:10:27;101297.72;;;-0.58;95.02
54270;BME280;40181;51.560;13.000;2023-01-26T11:13:13;101296.81;;;-0.58;95.22
54270;BME280;40181;51.560;13.000;2023-01-26T11:15:45;101288.75;;;-0.63;94.86
54270;BME280;40181;51.560;13.000;2023-01-26T11:18:23;101289.22;;;-0.68;94.98
54270;BME280;40181;51.560;13.000;2023-01-26T11:20:59;101276.84;;;-0.61;95.15
54270;BME280;40181;51.560;13.000;2023-01-26T11:23:42;101279.44;;;-0.61;95.16
54270;BME280;40181;51.560;13.000;2023-01-26T11:26:45;101285.72;;;-0.57;94.57
54270;BME280;40181;51.560;13.000;2023-01-26T11:29:54;101271.44;;;-0.52;94.17
54270;BME280;40181;51.560;13.000;2023-01-26T11:32:45;101268.25;;;-0.36;93.31
54270;BME280;40181;51.560;13.000;2023-01-26T11:35:28;101271.03;;;-0.33;93.19
54270;BME280;40181;51.560;13.000;2023-01-26T11:38:09;101264.97;;;-0.33;93.53
54270;BME280;40181;51.560;13.000;2023-01-26T11:40:49;101266.59;;;-0.22;93.38
54270;BME280;40181;51.560;13.000;2023-01-26T11:43:44;101256.66;;;-0.29;93.84
54270;BME280;40181;51.560;13.000;2023-01-26T11:46:45;101252.22;;;-0.44;95.00
54270;BME280;40181;51.560;13.000;2023-01-26T11:49:48;101244.16;;;-0.48;93.58
54270;BME280;40181;51.560;13.000;2023-01-26T11:52:33;101243.72;;;-0.29;94.08
54270;BME280;40181;51.560;13.000;2023-01-26T11:55:21;101249.75;;;-0.42;93.86
54270;BME280;40181;51.560;13.000;2023-01-26T11:58:04;101240.63;;;-0.62;93.49
54270;BME280;40181;51.560;13.000;2023-01-26T12:00:45;101259.66;;;-0.48;92.24
54270;BME280;40181;51.560;13.000;2023-01-26T12:03:24;101236.22;;;-0.26;92.18
54270;BME280;40181;51.560;13.000;2023-01-26T12:06:01;101235.09;;;-0.30;91.78
54270;BME280;40181;51.560;13.000;2023-01-26T12:08:37;101240.31;;;-0.42;92.50
54270;BME280;40181;51.560;13.000;2023-01-26T12:11:13;101232.22;;;-0.34;92.46
54270;BME280;40181;51.560;13.000;2023-01-26T12:14:00;101230.25;;;-0.25;92.10
54270;BME280;40181;51.560;13.000;2023-01-26T12:16:52;101225.59;;;-0.17;92.18
54270;BME280;40181;51.560;13.000;2023-01-26T12:19:40;101217.09;;;-0.42;92.82
54270;BME280;40181;51.560;13.000;2023-01-26T12:22:19;101215.47;;;-0.14;92.34
54270;BME280;40181;51.560;13.000;2023-01-26T12:24:54;101216.44;;;-0.25;93.75
54270;BME280;40181;51.560;13.000;2023-01-26T12:27:30;101207.09;;;-0.23;93.46
54270;BME280;40181;51.560;13.000;2023-01-26T12:30:05;101211.41;;;-0.49;94.13
54270;BME280;40181;51.560;13.000;2023-01-26T12:32:49;101203.09;;;-0.32;94.99
54270;BME280;40181;51.560;13.000;2023-01-26T12:35:29;101200.59;;;-0.44;94.77
54270;BME280;40181;51.560;13.000;2023-01-26T12:38:18;101204.50;;;-0.37;93.96
54270;BME280;40181;51.560;13.000;2023-01-26T12:41:02;101201.72;;;-0.40;93.94
54270;BME280;40181;51.560;13.000;2023-01-26T12:43:48;101202.38;;;-0.43;94.21
54270;BME280;40181;51.560;13.000;2023-01-26T12:46:26;101212.88;;;-0.28;93.78
54270;BME280;40181;51.560;13.000;2023-01-26T12:49:02;101222.88;;;-0.58;94.43
54270;BME280;40181;51.560;13.000;2023-01-26T12:51:42;101209.44;;;-0.65;94.29
54270;BME280;40181;51.560;13.000;2023-01-26T12:54:17;101213.41;;;-0.45;94.46
54270;BME280;40181;51.560;13.000;2023-01-26T12:56:52;101220.94;;;-0.48;94.29
54270;BME280;40181;51.560;13.000;2023-01-26T12:59:30;101210.66;;;-0.60;93.62
54270;BME280;40181;51.560;13.000;2023-01-26T13:02:09;101209.94;;;-0.83;94.12
54270;BME280;40181;51.560;13.000;2023-01-26T13:04:48;101211.50;;;-0.48;93.37
54270;BME280;40181;51.560;13.000;2023-01-26T13:07:35;101208.13;;;-0.47;93.28
54270;BME280;40181;51.560;13.000;2023-01-26T13:10:19;101225.19;;;-0.49;93.28
54270;BME280;40181;51.560;13.000;2023-01-26T13:12:55;101212.88;;;-0.53;93.49